createdAt,value
2019-05-09T00:04:05.958Z,101052.78
2019-05-09T00:09:50.131Z,101072.78
2019-05-09T00:12:19.748Z,101083.46
2019-05-09T00:14:49.573Z,101080.84
2019-05-09T00:17:19.006Z,101084.31
2019-05-09T00:19:48.878Z,101089.89
2019-05-09T00:25:14.768Z,101088.69
2019-05-09T00:28:24.515Z,101089.20
2019-05-09T00:31:33.860Z,101097.17
2019-05-09T00:36:47.935Z,101104.70
2019-05-09T00:45:39.055Z,101116.39
2019-05-09T00:51:10.468Z,101120.81
2019-05-09T00:54:19.131Z,101117.25
2019-05-09T00:56:48.954Z,101121.17
2019-05-09T01:02:34.039Z,101127.30
2019-05-09T01:08:13.817Z,101142.30
2019-05-09T01:10:43.743Z,101141.89
2019-05-09T01:13:15.220Z,101140.22
2019-05-09T01:16:24.460Z,101145.53
2019-05-09T01:21:33.343Z,101155.39
2019-05-09T01:24:03.558Z,101167.23
2019-05-09T01:26:35.012Z,101172.22
2019-05-09T01:32:34.308Z,101167.10
2019-05-09T01:35:16.795Z,101175.59
2019-05-09T01:37:47.134Z,101174.62
2019-05-09T01:40:16.599Z,101183.18
2019-05-09T01:43:06.390Z,101185.34
2019-05-09T01:48:18.990Z,101183.83
2019-05-09T01:50:48.435Z,101191.48
2019-05-09T01:58:54.899Z,101201.05
2019-05-09T02:07:23.836Z,101206.38
2019-05-09T02:09:55.302Z,101199.52
2019-05-09T02:13:04.039Z,101208.41
2019-05-09T02:15:53.914Z,101209.41
2019-05-09T02:21:07.703Z,101214.33
2019-05-09T02:23:38.426Z,101219.55
2019-05-09T02:26:07.981Z,101223.45
2019-05-09T02:28:37.924Z,101221.09
2019-05-09T02:31:08.174Z,101219.08
2019-05-09T02:34:17.277Z,101225.11
2019-05-09T02:36:49.542Z,101232.45
2019-05-09T02:39:18.982Z,101233.79
2019-05-09T02:42:00.981Z,101239.86
2019-05-09T02:53:20.205Z,101262.73
2019-05-09T02:55:50.996Z,101265.34
2019-05-09T03:01:30.117Z,101276.70
2019-05-09T03:04:00.679Z,101282.80
2019-05-09T03:07:09.940Z,101296.41
2019-05-09T03:09:41.342Z,101292.84
2019-05-09T03:12:50.560Z,101309.55
2019-05-09T03:15:40.856Z,101305.88
2019-05-09T03:21:30.502Z,101301.08
2019-05-09T03:24:00.598Z,101304.30
2019-05-09T03:26:33.917Z,101300.69
2019-05-09T03:29:12.726Z,101306.17
2019-05-09T03:31:42.505Z,101306.00
2019-05-09T03:34:12.245Z,101314.53
2019-05-09T03:37:00.581Z,101314.76
2019-05-09T03:42:09.949Z,101331.36
2019-05-09T03:47:24.483Z,101344.30
2019-05-09T03:50:33.233Z,101343.62
2019-05-09T03:53:03.394Z,101343.77
2019-05-09T03:55:35.545Z,101338.23
2019-05-09T04:00:54.144Z,101327.34
2019-05-09T04:03:24.331Z,101324.86
2019-05-09T04:06:33.016Z,101336.00
2019-05-09T04:09:02.583Z,101338.25
2019-05-09T04:14:47.978Z,101359.97
2019-05-09T04:17:18.316Z,101361.31
2019-05-09T04:19:47.999Z,101356.19
2019-05-09T04:22:19.372Z,101360.62
2019-05-09T04:30:54.765Z,101368.00
2019-05-09T04:36:39.982Z,101376.58
2019-05-09T04:39:28.600Z,101381.27
2019-05-09T04:42:19.045Z,101391.91
2019-05-09T04:45:09.964Z,101394.91
2019-05-09T04:47:39.455Z,101384.25
2019-05-09T04:53:34.155Z,101388.84
2019-05-09T04:59:18.627Z,101388.89
2019-05-09T05:01:55.231Z,101402.77
2019-05-09T05:04:28.189Z,101407.14
2019-05-09T05:07:37.691Z,101419.53
2019-05-09T05:16:11.666Z,101424.20
2019-05-09T05:18:41.305Z,101429.75
2019-05-09T05:21:11.044Z,101423.84
2019-05-09T05:24:04.304Z,101430.11
2019-05-09T05:27:13.908Z,101431.38
2019-05-09T05:29:44.291Z,101435.45
2019-05-09T05:35:29.303Z,101462.27
2019-05-09T05:37:59.243Z,101441.73
2019-05-09T05:40:32.846Z,101451.23
2019-05-09T05:43:01.043Z,101445.80
2019-05-09T05:51:22.564Z,101455.16
2019-05-09T05:53:52.018Z,101457.86
2019-05-09T05:56:21.551Z,101463.66
2019-05-09T05:59:30.256Z,101461.48
2019-05-09T06:05:01.605Z,101473.16
2019-05-09T06:07:32.917Z,101468.21
2019-05-09T06:10:49.516Z,101464.84
2019-05-09T06:13:20.701Z,101470.17
2019-05-09T06:15:50.812Z,101470.77
2019-05-09T06:18:20.720Z,101468.34
2019-05-09T06:20:50.866Z,101470.20
2019-05-09T06:23:20.661Z,101467.94
2019-05-09T06:29:00.440Z,101470.81
2019-05-09T06:31:29.886Z,101473.15
2019-05-09T06:33:59.365Z,101468.98
2019-05-09T06:36:28.783Z,101469.02
2019-05-09T06:38:58.992Z,101476.39
2019-05-09T06:41:31.037Z,101467.91
2019-05-09T06:47:01.470Z,101480.00
2019-05-09T06:49:53.589Z,101481.44
2019-05-09T06:52:23.353Z,101477.33
2019-05-09T06:58:27.821Z,101482.16
2019-05-09T07:09:38.503Z,101486.47
2019-05-09T07:18:12.060Z,101489.89
2019-05-09T07:21:20.883Z,101489.50
2019-05-09T07:24:30.336Z,101492.50
2019-05-09T07:30:45.128Z,101496.09
2019-05-09T07:36:18.806Z,101499.93
2019-05-09T07:38:49.239Z,101508.09
2019-05-09T07:44:51.583Z,101515.84
2019-05-09T07:47:18.172Z,101513.72
2019-05-09T07:49:59.744Z,101522.58
2019-05-09T07:55:38.060Z,101534.64
2019-05-09T07:58:10.454Z,101542.78
2019-05-09T08:00:40.041Z,101543.53
2019-05-09T08:03:13.042Z,101532.02
2019-05-09T08:05:41.414Z,101534.56
2019-05-09T08:08:50.116Z,101547.53
2019-05-09T08:11:19.512Z,101554.56
2019-05-09T08:13:48.986Z,101556.44
2019-05-09T08:16:19.572Z,101554.36
2019-05-09T08:18:50.234Z,101554.33
2019-05-09T08:21:59.356Z,101543.48
2019-05-09T08:24:29.553Z,101546.27
2019-05-09T08:26:59.086Z,101544.75
2019-05-09T08:29:28.820Z,101548.84
2019-05-09T08:32:10.795Z,101551.40
2019-05-09T08:37:38.968Z,101559.44
2019-05-09T08:40:08.293Z,101562.73
2019-05-09T08:42:39.945Z,101567.27
2019-05-09T08:45:48.969Z,101576.17
2019-05-09T08:48:18.904Z,101571.75
2019-05-09T08:51:08.855Z,101575.54
2019-05-09T08:56:54.410Z,101571.12
2019-05-09T08:59:27.625Z,101583.05
2019-05-09T09:02:13.984Z,101576.15
2019-05-09T09:04:30.383Z,101580.19
2019-05-09T09:07:00.006Z,101590.34
2019-05-09T09:09:30.084Z,101589.86
2019-05-09T09:12:00.280Z,101588.35
2019-05-09T09:14:29.849Z,101589.47
2019-05-09T09:17:38.796Z,101589.84
2019-05-09T09:23:46.801Z,101600.34
2019-05-09T09:26:13.959Z,101610.59
2019-05-09T09:28:43.810Z,101600.98
2019-05-09T09:31:52.943Z,101612.43
2019-05-09T09:34:22.530Z,101614.47
2019-05-09T09:36:52.355Z,101617.50
2019-05-09T09:40:01.348Z,101609.58
2019-05-09T09:45:44.823Z,101610.41
2019-05-09T09:48:14.146Z,101620.00
2019-05-09T09:53:41.601Z,101625.78
2019-05-09T10:02:27.908Z,101625.08
2019-05-09T10:04:57.793Z,101631.91
2019-05-09T10:07:27.951Z,101631.00
2019-05-09T10:09:58.585Z,101638.65
2019-05-09T10:12:29.915Z,101635.11
2019-05-09T10:15:18.874Z,101639.06
2019-05-09T10:18:08.761Z,101645.39
2019-05-09T10:23:24.330Z,101645.16
2019-05-09T10:25:53.750Z,101652.16
2019-05-09T10:29:02.555Z,101653.47
2019-05-09T10:31:32.916Z,101654.37
2019-05-09T10:34:42.099Z,101647.16
2019-05-09T10:43:38.672Z,101651.38
2019-05-09T10:46:24.209Z,101644.84
2019-05-09T10:51:48.543Z,101652.91
2019-05-09T10:57:20.081Z,101643.03
2019-05-09T10:59:49.683Z,101643.53
2019-05-09T11:02:19.267Z,101647.10
2019-05-09T11:05:30.020Z,101644.68
2019-05-09T11:08:00.218Z,101651.84
2019-05-09T11:11:09.570Z,101658.80
2019-05-09T11:13:40.669Z,101650.81
2019-05-09T11:16:10.188Z,101657.30
2019-05-09T11:18:39.741Z,101659.83
2019-05-09T11:24:18.953Z,101663.23
2019-05-09T11:26:49.815Z,101669.58
2019-05-09T11:29:21.641Z,101657.52
2019-05-09T11:31:52.352Z,101659.52
2019-05-09T11:34:21.864Z,101657.09
2019-05-09T11:39:48.168Z,101664.41
2019-05-09T11:42:17.879Z,101658.31
2019-05-09T11:44:50.127Z,101661.98
2019-05-09T11:47:58.853Z,101674.28
2019-05-09T11:50:29.373Z,101669.09
2019-05-09T11:53:40.181Z,101679.68
2019-05-09T11:56:10.266Z,101683.09
2019-05-09T11:58:40.194Z,101693.55
2019-05-09T12:04:04.635Z,101684.61
2019-05-09T12:07:13.978Z,101682.15
2019-05-09T12:09:43.873Z,101682.45
2019-05-09T12:15:22.392Z,101678.80
2019-05-09T12:17:58.214Z,101682.84
2019-05-09T12:20:24.416Z,101681.81
2019-05-09T12:22:54.005Z,101684.84
2019-05-09T12:25:24.711Z,101681.77
2019-05-09T12:27:54.492Z,101689.98
2019-05-09T12:33:20.086Z,101675.12
2019-05-09T12:38:59.444Z,101680.45
2019-05-09T12:41:31.609Z,101694.72
2019-05-09T12:44:02.980Z,101693.95
2019-05-09T12:49:48.799Z,101688.20
2019-05-09T12:52:19.089Z,101691.95
2019-05-09T12:55:28.054Z,101684.17
2019-05-09T12:57:59.460Z,101684.52
2019-05-09T13:01:09.426Z,101680.53
2019-05-09T13:03:39.821Z,101681.37
2019-05-09T13:06:49.489Z,101671.56
2019-05-09T13:09:19.706Z,101681.16
2019-05-09T13:12:08.773Z,101675.75
2019-05-09T13:14:38.601Z,101667.33
2019-05-09T13:17:48.049Z,101662.58
2019-05-09T13:20:20.116Z,101665.25
2019-05-09T13:22:49.809Z,101656.77
2019-05-09T13:28:28.236Z,101668.78
2019-05-09T13:31:39.473Z,101668.31
2019-05-09T13:37:04.083Z,101666.00
2019-05-09T13:39:33.582Z,101668.28
2019-05-09T13:44:59.985Z,101674.41
2019-05-09T13:47:29.801Z,101670.80
2019-05-09T13:50:00.116Z,101664.25
2019-05-09T13:52:29.477Z,101666.54
2019-05-09T13:54:59.812Z,101659.45
2019-05-09T13:57:29.644Z,101650.95
2019-05-09T14:00:03.249Z,101651.49
2019-05-09T14:02:44.966Z,101648.90
2019-05-09T14:05:18.991Z,101654.97
2019-05-09T14:07:49.180Z,101649.04
2019-05-09T14:10:18.777Z,101659.22
2019-05-09T14:13:04.634Z,101654.80
2019-05-09T14:15:19.309Z,101652.31
2019-05-09T14:17:53.514Z,101649.17
2019-05-09T14:20:20.833Z,101656.60
2019-05-09T14:22:50.462Z,101656.02
2019-05-09T14:25:20.809Z,101651.09
2019-05-09T14:27:52.401Z,101662.52
2019-05-09T14:30:41.568Z,101652.66
2019-05-09T14:35:47.885Z,101653.61
2019-05-09T14:41:39.778Z,101653.84
2019-05-09T14:44:09.928Z,101658.99
2019-05-09T14:46:39.467Z,101658.53
2019-05-09T14:52:04.927Z,101663.09
2019-05-09T14:55:14.315Z,101673.47
2019-05-09T15:00:38.794Z,101678.59
2019-05-09T15:03:10.338Z,101668.31
2019-05-09T15:05:40.051Z,101665.50
2019-05-09T15:08:09.438Z,101666.97
2019-05-09T15:10:39.209Z,101668.55
2019-05-09T15:13:09.081Z,101667.31
2019-05-09T15:18:48.554Z,101681.25
2019-05-09T15:21:19.187Z,101677.78
2019-05-09T15:23:50.235Z,101670.08
2019-05-09T15:26:19.742Z,101673.98
2019-05-09T15:28:50.813Z,101678.77
2019-05-09T15:36:52.414Z,101676.45
2019-05-09T15:40:01.268Z,101685.70
2019-05-09T15:42:32.087Z,101688.15
2019-05-09T15:45:02.360Z,101680.13
2019-05-09T15:47:34.542Z,101682.69
2019-05-09T15:56:09.778Z,101687.86
2019-05-09T15:58:39.247Z,101690.00
2019-05-09T16:01:08.879Z,101679.74
2019-05-09T16:03:38.664Z,101675.84
2019-05-09T16:06:32.969Z,101677.52
2019-05-09T16:08:59.649Z,101683.31
2019-05-09T16:11:29.929Z,101678.91
2019-05-09T16:14:03.087Z,101677.44
2019-05-09T16:16:32.278Z,101676.17
2019-05-09T16:19:02.719Z,101677.09
2019-05-09T16:21:33.735Z,101672.34
2019-05-09T16:24:03.916Z,101666.64
2019-05-09T16:29:31.981Z,101665.21
2019-05-09T16:32:00.256Z,101668.84
2019-05-09T16:34:30.280Z,101668.94
2019-05-09T16:36:59.779Z,101669.41
2019-05-09T16:39:29.185Z,101660.66
2019-05-09T16:42:00.708Z,101665.20
2019-05-09T16:44:31.112Z,101658.69
2019-05-09T16:47:01.174Z,101663.90
2019-05-09T16:49:32.813Z,101664.53
2019-05-09T16:52:43.513Z,101663.19
2019-05-09T16:55:24.406Z,101660.75
2019-05-09T16:57:57.245Z,101660.66
2019-05-09T17:01:13.632Z,101656.33
2019-05-09T17:06:45.061Z,101664.20
2019-05-09T17:09:18.058Z,101652.00
2019-05-09T17:11:48.051Z,101661.22
2019-05-09T17:14:19.871Z,101661.02
2019-05-09T17:16:52.866Z,101660.63
2019-05-09T17:19:21.972Z,101664.06
2019-05-09T17:22:00.401Z,101657.92
2019-05-09T17:24:30.034Z,101657.73
2019-05-09T17:27:02.302Z,101665.23
2019-05-09T17:29:31.966Z,101664.65
2019-05-09T17:32:01.317Z,101666.92
2019-05-09T17:34:30.927Z,101671.38
2019-05-09T17:37:01.470Z,101678.38
2019-05-09T17:39:30.959Z,101673.33
2019-05-09T17:42:00.604Z,101674.64
2019-05-09T17:44:30.158Z,101673.47
2019-05-09T17:47:00.454Z,101671.09
2019-05-09T17:49:30.429Z,101674.24
2019-05-09T17:52:00.715Z,101675.52
2019-05-09T17:54:30.117Z,101676.70
2019-05-09T17:56:59.867Z,101674.65
2019-05-09T17:59:29.514Z,101675.12
2019-05-09T18:05:48.673Z,101675.08
2019-05-09T18:08:19.181Z,101675.98
2019-05-09T18:11:27.912Z,101678.46
2019-05-09T18:14:00.624Z,101677.41
2019-05-09T18:16:30.114Z,101680.52
2019-05-09T18:19:39.986Z,101677.87
2019-05-09T18:22:28.308Z,101671.58
2019-05-09T18:24:58.276Z,101676.34
2019-05-09T18:27:28.472Z,101687.80
2019-05-09T18:30:38.878Z,101681.06
2019-05-09T18:33:27.752Z,101690.07
2019-05-09T18:36:28.242Z,101686.52
2019-05-09T18:41:51.854Z,101689.66
2019-05-09T18:45:00.524Z,101694.48
2019-05-09T18:47:31.379Z,101697.98
2019-05-09T18:50:00.880Z,101702.91
2019-05-09T18:53:10.016Z,101701.83
2019-05-09T19:01:55.156Z,101709.28
2019-05-09T19:04:25.202Z,101702.73
2019-05-09T19:09:50.796Z,101706.03
2019-05-09T19:12:59.656Z,101699.60
2019-05-09T19:21:29.121Z,101714.91
2019-05-09T19:23:59.332Z,101711.78
2019-05-09T19:26:47.741Z,101707.59
2019-05-09T19:29:17.859Z,101715.66
2019-05-09T19:31:47.396Z,101716.41
2019-05-09T19:34:17.517Z,101713.68
2019-05-09T19:37:26.437Z,101710.88
2019-05-09T19:39:56.594Z,101718.94
2019-05-09T19:42:45.507Z,101718.65
2019-05-09T19:45:56.244Z,101706.16
2019-05-09T19:51:51.984Z,101716.09
2019-05-09T19:54:21.849Z,101712.69
2019-05-09T19:56:51.666Z,101718.27
2019-05-09T19:59:21.571Z,101720.77
2019-05-09T20:01:50.986Z,101602.66
2019-05-09T20:04:20.406Z,101711.03
2019-05-09T20:07:29.268Z,101713.32
2019-05-09T20:13:20.158Z,101702.02
2019-05-09T20:18:38.948Z,101692.62
2019-05-09T20:21:08.530Z,101694.98
2019-05-09T20:23:38.072Z,101691.50
2019-05-09T20:26:46.952Z,101689.98
2019-05-09T20:29:16.402Z,101690.92
2019-05-09T20:31:45.819Z,101688.09
2019-05-09T20:34:15.660Z,101689.59
2019-05-09T20:36:47.412Z,101679.25
2019-05-09T20:39:16.981Z,101676.50
2019-05-09T20:41:47.182Z,101679.49
2019-05-09T20:44:17.521Z,101679.19
2019-05-09T20:46:47.526Z,101678.97
2019-05-09T20:52:31.744Z,101676.22
2019-05-09T20:57:57.336Z,101672.61
2019-05-09T21:00:27.290Z,101666.45
2019-05-09T21:02:57.007Z,101667.64
2019-05-09T21:05:26.711Z,101638.98
2019-05-09T21:14:22.340Z,101664.04
2019-05-09T21:17:03.820Z,101661.01
2019-05-09T21:19:45.501Z,101655.17
2019-05-09T21:22:15.860Z,101663.67
2019-05-09T21:24:45.430Z,101658.35
2019-05-09T21:27:16.241Z,101654.86
2019-05-09T21:29:45.902Z,101653.83
2019-05-09T21:32:15.686Z,101654.86
2019-05-09T21:34:45.616Z,101658.04
2019-05-09T21:37:16.541Z,101657.70
2019-05-09T21:39:46.037Z,101659.08
2019-05-09T21:42:16.316Z,101658.96
2019-05-09T21:44:45.658Z,101655.02
2019-05-09T21:47:55.308Z,101658.62
2019-05-09T21:50:24.970Z,101648.95
2019-05-09T21:52:54.612Z,101650.21
2019-05-09T21:58:19.506Z,101651.59
2019-05-09T22:01:10.698Z,101643.30
2019-05-09T22:06:36.427Z,101645.47
2019-05-09T22:09:46.188Z,101644.09
2019-05-09T22:12:56.187Z,101646.72
2019-05-09T22:15:25.703Z,101640.27
2019-05-09T22:18:34.563Z,101640.42
2019-05-09T22:21:06.061Z,101639.63
2019-05-09T22:26:32.019Z,101632.53
2019-05-09T22:29:01.436Z,101635.06
2019-05-09T22:34:27.262Z,101629.10
2019-05-09T22:36:56.736Z,101631.95
2019-05-09T22:39:34.038Z,101635.15
2019-05-09T22:42:25.069Z,101638.18
2019-05-09T22:44:54.691Z,101631.66
2019-05-09T22:48:03.979Z,101630.41
2019-05-09T22:50:33.877Z,101626.28
2019-05-09T22:53:03.226Z,101620.67
2019-05-09T22:56:12.391Z,101619.11
2019-05-09T22:58:42.265Z,101617.98
2019-05-09T23:01:12.717Z,101624.77
2019-05-09T23:06:39.774Z,101513.66
2019-05-09T23:09:09.594Z,101623.40
2019-05-09T23:11:39.949Z,101620.62
2019-05-09T23:14:09.464Z,101614.33
2019-05-09T23:17:18.446Z,101608.67
2019-05-09T23:19:48.953Z,101609.06
2019-05-09T23:25:32.306Z,101602.68
2019-05-09T23:28:02.666Z,101604.24
2019-05-09T23:31:11.366Z,101613.78
2019-05-09T23:33:42.674Z,101601.03
2019-05-09T23:36:12.123Z,101592.28
2019-05-09T23:39:01.299Z,101589.31
2019-05-09T23:41:31.333Z,101591.95
2019-05-09T23:44:00.829Z,101584.73
2019-05-09T23:47:09.735Z,101586.97
2019-05-09T23:50:00.556Z,101588.34
2019-05-09T23:52:30.083Z,101582.65
2019-05-09T23:55:18.295Z,101582.83
